地図

経路データ

SID SEASON NUMBER BASIN SUBBASIN NAME ISO_TIME NATURE LAT LON WMO_WIND WMO_PRES WMO_AGENCY TRACK_TYPE DIST2LAND LANDFALL IFLAG USA_AGENCY USA_ATCF_ID USA_LAT USA_LON USA_RECORD USA_STATUS USA_WIND USA_PRES USA_SSHS USA_R34_NE USA_R34_SE USA_R34_SW USA_R34_NW USA_R50_NE USA_R50_SE USA_R50_SW USA_R50_NW USA_R64_NE USA_R64_SE USA_R64_SW USA_R64_NW USA_POCI USA_ROCI USA_RMW USA_EYE TOKYO_LAT TOKYO_LON TOKYO_GRADE TOKYO_WIND TOKYO_PRES TOKYO_R50_DIR TOKYO_R50_LONG TOKYO_R50_SHORT TOKYO_R30_DIR TOKYO_R30_LONG TOKYO_R30_SHORT TOKYO_LAND CMA_LAT CMA_LON CMA_CAT CMA_WIND CMA_PRES HKO_LAT HKO_LON HKO_CAT HKO_WIND HKO_PRES NEWDELHI_LAT NEWDELHI_LON NEWDELHI_GRADE NEWDELHI_WIND NEWDELHI_PRES NEWDELHI_CI NEWDELHI_DP NEWDELHI_POCI REUNION_LAT REUNION_LON REUNION_TYPE REUNION_WIND REUNION_PRES REUNION_TNUM REUNION_CI REUNION_RMW REUNION_R34_NE REUNION_R34_SE REUNION_R34_SW REUNION_R34_NW REUNION_R50_NE REUNION_R50_SE REUNION_R50_SW REUNION_R50_NW REUNION_R64_NE REUNION_R64_SE REUNION_R64_SW REUNION_R64_NW BOM_LAT BOM_LON BOM_TYPE BOM_WIND BOM_PRES BOM_TNUM BOM_CI BOM_RMW BOM_R34_NE BOM_R34_SE BOM_R34_SW BOM_R34_NW BOM_R50_NE BOM_R50_SE BOM_R50_SW BOM_R50_NW BOM_R64_NE BOM_R64_SE BOM_R64_SW BOM_R64_NW BOM_ROCI BOM_POCI BOM_EYE BOM_POS_METHOD BOM_PRES_METHOD NADI_LAT NADI_LON NADI_CAT NADI_WIND NADI_PRES WELLINGTON_LAT WELLINGTON_LON WELLINGTON_WIND WELLINGTON_PRES DS824_LAT DS824_LON DS824_STAGE DS824_WIND DS824_PRES TD9636_LAT TD9636_LON TD9636_STAGE TD9636_WIND TD9636_PRES TD9635_LAT TD9635_LON TD9635_WIND TD9635_PRES TD9635_ROCI NEUMANN_LAT NEUMANN_LON NEUMANN_CLASS NEUMANN_WIND NEUMANN_PRES MLC_LAT MLC_LON MLC_CLASS MLC_WIND MLC_PRES USA_GUST BOM_GUST BOM_GUST_PER REUNION_GUST REUNION_GUST_PER USA_SEAHGT USA_SEARAD_NE USA_SEARAD_SE USA_SEARAD_SW USA_SEARAD_NW STORM_SPEED STORM_DIR
1967006S15114 1967 4 SI WA EDITH 1967-01-05 23:00:00 NR -14.9000 114.200 main 684 684 __________O___ -1 -14.9000 114.200 7 7 230
1967006S15114 1967 4 SI WA EDITH 1967-01-06 00:00:00 TS -14.9761 114.109 main 684 684 O________OP___ jtwc_sh SH131967 -15.0000 114.100 -1 -15.0000 114.100 TC -14.9523 114.118 7 6 233
1967006S15114 1967 4 SI WA EDITH 1967-01-06 01:00:00 TS -15.0294 114.022 1003 bom main 688 672 P_____O__PP___ SH131967 -15.0554 114.017 -1 -15.0000 114.000 1003 -15.0554 114.017 TC -15.0045 114.037 7 8 231
1967006S15114 1967 4 SI WA EDITH 1967-01-06 03:00:00 TS -15.2420 113.771 main 677 672 P_____P__PP___ SH131967 -15.1626 113.850 -1 -15.7484 113.329 -15.1626 113.850 TC -15.1081 113.873 7 10 230
1967006S15114 1967 4 SI WA EDITH 1967-01-06 04:00:00 TS -15.3558 113.620 bom main 667 663 P_____O__PP___ SH131967 -15.2124 113.767 -1 -16.0000 113.000 -15.2124 113.767 TC -15.1594 113.791 7 12 240
1967006S15114 1967 4 SI WA EDITH 1967-01-06 06:00:00 TS -15.5489 113.211 main 680 670 O_____P__OP_O_ jtwc_sh SH131967 -15.3000 113.600 -1 -16.1094 112.349 -15.3000 113.600 TC -15.2604 113.625 7 -16.0000 112.800 TC 30 1000 14 253
1967006S15114 1967 4 SI WA EDITH 1967-01-06 07:00:00 TS -15.5628 112.934 bom main 687 687 P_____O__PP_P_ SH131967 -15.3364 113.517 -1 -16.0000 112.000 -15.3364 113.517 TC -15.3100 113.541 7 -15.8603 112.318 TC 30 999 16 277
1967006S15114 1967 4 SI WA EDITH 1967-01-06 09:00:00 TS -15.4557 112.386 main 725 725 P_____P__PP_P_ SH131967 -15.4000 113.350 -1 -15.5591 111.094 -15.4000 113.350 TC -15.4069 113.372 7 -15.5719 111.467 TC 32 999 16 283
1967006S15114 1967 4 SI WA EDITH 1967-01-06 10:00:00 TS -15.3781 112.113 bom main 752 752 P_____O__PP_P_ SH131967 -15.4308 113.267 -1 -15.3000 110.800 -15.4308 113.267 TC -15.4539 113.286 7 -15.4208 111.156 TC 33 998 12 292
1967006S15114 1967 4 SI WA EDITH 1967-01-06 11:00:00 TS -15.3071 112.003 main 767 767 P_____P__PO_P_ SH131967 -15.4636 113.183 -1 -15.0923 110.720 -15.4636 113.183 TC -15.5000 113.200 7 -15.2639 110.957 TC 34 998 6 315
1967006S15114 1967 4 SI WA EDITH 1967-01-06 12:00:00 TS -15.2408 111.969 bom main 762 748 O_____O__OP_O_ jtwc_sh SH131967 -15.5000 113.100 -1 -14.9000 110.800 -15.5000 113.100 TC -15.5450 113.113 7 -15.1000 110.900 TC 35 998 5 42
1967006S15114 1967 4 SI WA EDITH 1967-01-06 15:00:00 TS -15.0805 112.214 main 748 745 P_____P__PP_P_ SH131967 -15.6499 112.858 -1 -14.3231 111.519 -15.6499 112.858 TC -15.6744 112.846 7 -14.6286 111.517 TC 35 997 6 61
1967006S15114 1967 4 SI WA EDITH 1967-01-06 15:30:00 TS -15.0751 112.283 bom main 745 738 P_____O__PP_P_ SH131967 -15.6763 112.816 -1 -14.3000 111.700 -15.6763 112.816 TC -15.6954 112.801 7 -14.5719 111.679 TC 35 996 8 105
1967006S15114 1967 4 SI WA EDITH 1967-01-06 18:00:00 TS -15.1830 112.595 bom main 742 723 O_____O__OP_O_ jtwc_sh SH131967 -15.8000 112.600 -1 -14.6000 112.700 -15.8000 112.600 TC -15.7981 112.573 7 -14.5000 112.400 TC 35 996 6 149
1967006S15114 1967 4 SI WA EDITH 1967-01-06 20:00:00 TS -15.4572 112.526 bom main 719 710 P_____O__PP_P_ SH131967 -15.8691 112.408 -1 -15.3000 112.700 -15.8691 112.408 TC -15.8789 112.386 7 -14.8570 112.531 TC 36 994 9 198
1967006S15114 1967 4 SI WA EDITH 1967-01-06 21:00:00 TS -15.6081 112.445 main 715 694 P_____P__PP_P_ SH131967 -15.9000 112.307 -1 -15.5819 112.619 -15.9000 112.307 TC -15.9192 112.292 7 -15.1170 112.522 TC 37 994 11 214
1967006S15114 1967 4 SI WA EDITH 1967-01-06 23:00:00 TS -15.9019 112.217 main 697 686 P_____P__PO_P_ SH131967 -15.9636 112.103 -1 -16.0040 112.305 -15.9636 112.103 TC -16.0000 112.100 7 -15.6654 112.399 TC 39 993 11 219
1967006S15114 1967 4 SI WA EDITH 1967-01-07 00:00:00 TS -16.0341 112.086 main 689 678 O_____P__OP_O_ jtwc_sh SH131967 -16.0000 112.000 -1 -16.1630 112.105 -16.0000 112.000 TC -16.0416 112.009 7 -15.9000 112.300 TC 40 993 10 226
1967006S15114 1967 4 SI WA EDITH 1967-01-07 01:00:00 TS -16.1324 111.970 997 bom main 682 667 P_____O__PP_P_ SH131967 -16.0469 111.900 -1 -16.3000 111.900 997 -16.0469 111.900 TC -16.0831 111.919 7 -16.0427 112.204 TC 40 992 8 230
1967006S15114 1967 4 SI WA EDITH 1967-01-07 03:00:00 TS -16.3008 111.756 main 667 658 P_____P__PP_P_ SH131967 -16.1500 111.700 -1 -16.5553 111.674 -16.1500 111.700 TC -16.1663 111.735 7 -16.2401 111.945 TC 42 992 7 236
1967006S15114 1967 4 SI WA EDITH 1967-01-07 06:00:00 TS -16.4724 111.438 main 662 661 O_____P__OP_O_ jtwc_sh SH131967 -16.3000 111.400 -1 -16.7691 111.437 -16.3000 111.400 TC -16.2912 111.446 7 -16.4000 111.500 TC 45 991 6 245
1967006S15114 1967 4 SI WA EDITH 1967-01-07 09:00:00 TS -16.5704 111.145 main 666 666 P_____P__PP_P_ SH131967 -16.3999 111.115 -1 -16.8320 111.269 -16.3999 111.115 TC -16.4164 111.131 7 -16.5224 111.142 TC 50 987 6 254
1967006S15114 1967 4 SI WA EDITH 1967-01-07 11:00:00 TS -16.6112 110.944 main 676 676 P_____P__PO_P_ SH131967 -16.4635 110.911 -1 -16.8187 111.167 -16.4635 110.911 TC -16.5000 110.900 1 -16.5745 110.914 TC 53 984 6 259
1967006S15114 1967 4 SI WA EDITH 1967-01-07 12:00:00 TS -16.6297 110.838 main 681 676 O_____P__OP_O_ jtwc_sh SH131967 -16.5000 110.800 -1 -16.8019 111.112 -16.5000 110.800 TC -16.5416 110.779 1 -16.6000 110.800 TC 55 983 7 258
1967006S15114 1967 4 SI WA EDITH 1967-01-07 15:00:00 TS -16.6988 110.496 main 687 687 P_____P__PP_P_ SH131967 -16.6499 110.430 -1 -16.7367 110.906 -16.6499 110.430 TC -16.6665 110.389 1 -16.7074 110.450 TC 62 979 7 258
1967006S15114 1967 4 SI WA EDITH 1967-01-07 18:00:00 TS -16.7731 110.108 main 701 701 O_____P__OP_O_ jtwc_sh SH131967 -16.8000 110.000 -1 -16.6939 110.592 -16.8000 110.000 TC -16.7914 109.965 1 -16.8000 110.100 TC 70 975 8 259
1967006S15114 1967 4 SI WA EDITH 1967-01-07 21:00:00 TS -16.8442 109.680 main 727 724 P_____P__PP_P_ SH131967 -16.9000 109.515 -1 -16.7306 110.110 -16.9000 109.515 TC -16.9165 109.513 1 -16.8119 109.824 TC 75 971 9 258
1967006S15114 1967 4 SI WA EDITH 1967-01-07 23:00:00 TS -16.9202 109.353 main 738 738 P_____P__PO_P_ SH131967 -16.9636 109.172 -1 -16.8269 109.665 -16.9636 109.172 TC -17.0000 109.200 1 -16.8513 109.573 TC 78 968 10 255
1967006S15114 1967 4 SI WA EDITH 1967-01-08 00:00:00 TS -16.9739 109.174 main 743 743 O_____P__OP_O_ jtwc_sh SH131967 -17.0000 109.000 -1 -16.9029 109.399 -17.0000 109.000 TC -17.0404 109.043 1 -16.9000 109.400 TC 80 967 12 249
1967006S15114 1967 4 SI WA EDITH 1967-01-08 01:00:00 TS -17.0553 108.977 965 bom main 750 750 P_____O__PP_P_ SH131967 -17.0468 108.833 -1 -17.0000 109.100 965 4 -17.0468 108.833 TC -17.0806 108.884 1 -16.9594 109.143 TC 79 967 13 246
1967006S15114 1967 4 SI WA EDITH 1967-01-08 03:00:00 TS -17.2407 108.532 main 779 772 P_____P__PP_P_ SH131967 -17.1499 108.500 -1 -17.2126 108.300 -17.1499 108.500 TC -17.1611 108.557 1 -17.1388 108.535 TC 77 968 14 243
1967006S15114 1967 4 SI WA EDITH 1967-01-08 05:50:00 TS -17.5654 107.930 bom main 799 799 P_____O__PP_P_ SH131967 -17.2925 108.028 -1 -17.7000 107.300 -17.2925 108.028 TC -17.2766 108.081 1 -17.5672 107.736 TC 75 969 14 240
1967006S15114 1967 4 SI WA EDITH 1967-01-08 06:00:00 TS -17.5870 107.897 main 799 799 O_____P__OP_O_ jtwc_sh SH131967 -17.3000 108.000 -1 -17.7393 107.245 -17.3000 108.000 TC -17.2835 108.053 1 -17.6000 107.700 TC 75 970 13 227
1967006S15114 1967 4 SI WA EDITH 1967-01-08 09:00:00 TS -18.0378 107.405 bom main 815 806 P_____O__PP_P_ SH131967 -17.3999 107.500 -1 -18.6000 106.700 -17.3999 107.500 TC -17.4108 107.541 1 -18.5492 107.240 TC 72 971 11 221
1967006S15114 1967 4 SI WA EDITH 1967-01-08 11:00:00 TS -18.3043 107.241 bom main 816 810 P_____O__PO_P_ SH131967 -17.4635 107.167 -1 -19.2000 107.100 -17.4635 107.167 TC -17.5000 107.200 2 -19.0749 107.160 TC 70 972 8 208
1967006S15114 1967 4 SI WA EDITH 1967-01-08 12:00:00 TS -18.3714 107.214 main 810 810 O_____P__OP_O_ jtwc_sh SH131967 -17.5000 107.000 -1 -19.2833 107.548 -17.5000 107.000 TC -17.5452 107.036 2 -19.2000 107.200 TC 70 973 2 212
1967006S15114 1967 4 SI WA EDITH 1967-01-08 13:00:00 TS -18.3710 107.211 bom main 810 810 P_____O__PP_P_ SH131967 -17.5416 106.833 -1 -19.2000 108.000 -17.5416 106.833 TC -17.5913 106.872 2 -19.1151 107.382 TC 69 973 3 332
1967006S15114 1967 4 SI WA EDITH 1967-01-08 15:00:00 TS -18.2502 107.147 main 825 825 P_____P__PP_P_ SH131967 -17.6349 106.500 -1 -18.6749 108.413 -17.6349 106.500 TC -17.6860 106.544 2 -18.6703 107.888 TC 67 974 5 329
1967006S15114 1967 4 SI WA EDITH 1967-01-08 16:00:00 TS -18.1549 107.073 bom main 830 830 P_____O__PP_P_ SH131967 -17.6866 106.333 -1 -18.3000 108.400 -17.6866 106.333 TC -17.7347 106.379 2 -18.3881 108.118 TC 66 974 8 316
1967006S15114 1967 4 SI WA EDITH 1967-01-08 17:20:00 TS -18.0272 106.924 bom main 860 860 P_____O__PP_P_ SH131967 -17.7607 106.111 -1 -17.8000 108.200 -17.7607 106.111 TC -17.8010 106.159 2 -18.0378 108.296 TC 65 975 9 305
1967006S15114 1967 4 SI WA EDITH 1967-01-08 18:00:00 TS -17.9878 106.820 main 869 869 O_____P__OP_O_ jtwc_sh SH131967 -17.8000 106.000 -1 -17.6703 108.012 -17.8000 106.000 TC -17.8347 106.049 2 -17.9000 108.300 TC 65 976 13 273
1967006S15114 1967 4 SI WA EDITH 1967-01-08 21:00:00 TS -17.9836 106.082 bom main 933 933 P_____O__PP_P_ SH131967 -17.9999 105.500 -1 -17.8000 106.700 -17.9999 105.500 TC -17.9912 105.544 2 -17.7009 107.530 TC 62 978 15 267
1967006S15114 1967 4 SI WA EDITH 1967-01-08 23:00:00 TS -18.0587 105.496 main 982 982 P_____P__PO_P_ SH131967 -18.1363 105.167 -1 -17.9374 105.894 -18.1363 105.167 TC -18.1000 105.200 7 -17.8151 106.548 TC 60 979 17 261
1967006S15114 1967 4 SI WA EDITH 1967-01-09 00:00:00 TS -18.1207 105.175 main 1009 1009 O_____P__OP_O_ jtwc_sh SH131967 -18.2000 105.000 -1 -17.9735 105.540 -18.2000 105.000 TC -18.1461 105.029 7 -17.9000 106.000 TC 60 980 18 255
1967006S15114 1967 4 SI WA EDITH 1967-01-09 01:00:00 TS -18.2148 104.872 985 bom main 1031 1031 P_____O__PP___ SH131967 -18.2530 104.838 -1 -18.0000 105.200 985 -18.2530 104.838 TC -18.1921 104.857 7 TC 13 252
1967006S15114 1967 4 SI WA EDITH 1967-01-09 03:00:00 TS -18.3287 104.513 main 1062 1062 P________PP___ SH131967 -18.3497 104.515 -1 -18.3497 104.515 TC -18.2866 104.508 7 TC 11 252
1967006S15114 1967 4 SI WA EDITH 1967-01-09 06:00:00 TS -18.4816 103.989 main 1099 1099 O________OP___ jtwc_sh SH131967 -18.5000 104.000 -1 -18.5000 104.000 TC -18.4449 103.968 7 11 252
1967006S15114 1967 4 SI WA EDITH 1967-01-09 09:00:00 TS -18.6649 103.415 main 1146 1146 P________PP___ SH131967 -18.6774 103.422 -1 -18.6774 103.422 TC -18.6401 103.399 7 12 250
1967006S15114 1967 4 SI WA EDITH 1967-01-09 11:00:00 TS -18.8128 103.007 main 1181 1181 P________PO___ SH131967 -18.8192 103.011 -1 -18.8192 103.011 TC -18.8000 103.000 2 13 248
1967006S15114 1967 4 SI WA EDITH 1967-01-09 12:00:00 TS -18.8963 102.797 main 1196 1196 O________OP___ jtwc_sh SH131967 -18.9000 102.800 -1 -18.9000 102.800 TC -18.8908 102.793 2 13 245
1967006S15114 1967 4 SI WA EDITH 1967-01-09 15:00:00 TS -19.1924 102.151 main 1243 1243 P________PP___ SH131967 -19.1829 102.156 -1 -19.1829 102.156 TC -19.2019 102.147 2 14 243
1967006S15114 1967 4 SI WA EDITH 1967-01-09 18:00:00 TS -19.5344 101.482 main 1301 1301 O________OP___ jtwc_sh SH131967 -19.5000 101.500 -1 -19.5000 101.500 TC -19.5574 101.470 2 15 240
1967006S15114 1967 4 SI WA EDITH 1967-01-09 21:00:00 NR -19.9394 100.772 main 1359 1359 __________P___ SH131967 -1 TC -19.9394 100.772 2 16 239
1967006S15114 1967 4 SI WA EDITH 1967-01-09 23:00:00 NR -20.2000 100.300 main 1401 __________O___ SH131967 -1 TC -20.2000 100.300 2 15 239

IBTrACS Databaseについて

本データベースは、米国NOAAが公開する1842年以降の世界の熱帯低気圧のベストトラックデータアーカイブInternational Best Track Archive for Climate Stewardship (IBTrACS)を、ウェブで閲覧しやすい形式に変換したものです。

最終更新日:2021-10-08